< < Back
Terminal Aerodrome Forecast


Current Version              Previous Versions:   1  2  3  4  5  6  7  8  9  

Terminal Aerodrome Forecast

966
FTUS42 KCAE 300249 AAA
TAFAGS
TAF AMD
KAGS 300249Z 3003/3024 VRB03KT P6SM VCSH SCT070 BKN200
     FM300500 00000KT P6SM SCT250
      TEMPO 3009/3012 4SM BR
     FM301600 20005KT P6SM SCT050 SCT200=



Latest METAR

670
SAUS70 KWBC 300400 RRC
MTRAGS
METAR KAGS 300353Z AUTO 12007KT 10SM SCT075 28/23 A2996 RMK AO2 LTG DSNT
NE SLP144 T02780233


USA.gov is the U.S. government's official web portal to all federal, state and local government web resources and services.